createdAt,value
2022-12-15T00:02:17.647Z,25.20
2022-12-15T00:05:03.026Z,34.63
2022-12-15T00:07:48.243Z,22.90
2022-12-15T00:10:33.667Z,22.30
2022-12-15T00:13:18.877Z,21.17
2022-12-15T00:16:05.893Z,27.83
2022-12-15T00:18:51.805Z,38.25
2022-12-15T00:24:21.937Z,22.42
2022-12-15T00:27:07.134Z,23.30
2022-12-15T00:29:52.575Z,20.58
2022-12-15T00:32:40.418Z,24.63
2022-12-15T00:35:26.195Z,21.02
2022-12-15T00:38:11.623Z,27.20
2022-12-15T00:40:39.241Z,27.38
2022-12-15T00:43:11.756Z,32.03
2022-12-15T00:46:08.511Z,24.55
2022-12-15T00:48:37.357Z,26.60
2022-12-15T00:51:04.108Z,28.65
2022-12-15T00:53:49.556Z,29.50
2022-12-15T00:56:34.978Z,28.92
2022-12-15T00:59:20.265Z,25.92
2022-12-15T01:02:05.784Z,30.17
2022-12-15T01:04:52.289Z,25.67
2022-12-15T01:07:37.624Z,23.85
2022-12-15T01:10:23.606Z,23.33
2022-12-15T01:15:55.159Z,24.90
2022-12-15T01:18:40.427Z,30.73
2022-12-15T01:21:10.992Z,22.20
2022-12-15T01:23:39.580Z,30.10
2022-12-15T01:26:08.326Z,20.75
2022-12-15T01:28:36.191Z,21.02
2022-12-15T01:31:04.024Z,23.98
2022-12-15T01:33:31.894Z,25.25
2022-12-15T01:36:00.799Z,24.35
2022-12-15T01:38:30.089Z,25.95
2022-12-15T01:41:01.393Z,23.67
2022-12-15T01:43:31.971Z,23.27
2022-12-15T01:46:09.504Z,26.52
2022-12-15T01:48:41.956Z,20.77
2022-12-15T01:51:18.580Z,22.63
2022-12-15T01:53:52.758Z,26.67
2022-12-15T01:56:21.257Z,26.70
2022-12-15T01:58:52.237Z,23.35
2022-12-15T02:01:19.793Z,24.85
2022-12-15T02:03:48.249Z,20.13
2022-12-15T02:06:17.940Z,20.13
2022-12-15T02:08:50.072Z,23.00
2022-12-15T02:11:49.942Z,22.88
2022-12-15T02:14:26.576Z,22.40
2022-12-15T02:17:09.447Z,23.95
2022-12-15T02:20:13.374Z,28.77
2022-12-15T02:23:02.848Z,23.95
2022-12-15T02:25:50.610Z,22.63
2022-12-15T02:28:25.244Z,23.98
2022-12-15T02:31:14.884Z,25.10
2022-12-15T02:33:47.578Z,21.98
2022-12-15T02:36:24.065Z,19.13
2022-12-15T02:38:51.954Z,20.17
2022-12-15T02:41:39.418Z,23.63
2022-12-15T02:44:12.209Z,23.00
2022-12-15T02:47:03.842Z,20.30
2022-12-15T02:49:39.851Z,21.17
2022-12-15T02:52:22.305Z,19.35
2022-12-15T02:55:08.459Z,20.73
2022-12-15T02:57:44.760Z,20.02
2022-12-15T03:00:13.841Z,20.83
2022-12-15T03:02:47.305Z,21.08
2022-12-15T03:05:15.897Z,21.05
2022-12-15T03:07:43.664Z,24.98
2022-12-15T03:10:13.912Z,34.03
2022-12-15T03:12:41.388Z,17.38
2022-12-15T03:15:09.488Z,26.42
2022-12-15T03:17:38.300Z,22.73
2022-12-15T03:20:08.693Z,22.65
2022-12-15T03:22:36.292Z,25.23
2022-12-15T03:25:04.469Z,21.80
2022-12-15T03:27:32.031Z,22.95
2022-12-15T03:29:59.526Z,24.88
2022-12-15T03:32:27.244Z,21.90
2022-12-15T03:34:55.087Z,22.00
2022-12-15T03:37:23.931Z,22.63
2022-12-15T03:39:51.437Z,32.70
2022-12-15T03:42:39.251Z,17.63
2022-12-15T03:45:07.505Z,22.92
2022-12-15T03:47:35.045Z,24.17
2022-12-15T03:50:02.572Z,20.58
2022-12-15T03:52:31.527Z,22.40
2022-12-15T03:54:59.038Z,25.73
2022-12-15T03:57:26.943Z,25.23
2022-12-15T03:59:55.303Z,25.88
2022-12-15T04:02:22.964Z,25.85
2022-12-15T04:04:50.594Z,26.10
2022-12-15T04:07:18.031Z,23.20
2022-12-15T04:09:46.832Z,20.38
2022-12-15T04:12:14.296Z,22.98
2022-12-15T04:14:42.498Z,29.58
2022-12-15T04:17:10.077Z,20.48
2022-12-15T04:19:55.031Z,22.75
2022-12-15T04:22:22.665Z,23.10
2022-12-15T04:25:09.126Z,21.83
2022-12-15T04:27:59.843Z,24.15
2022-12-15T04:30:46.862Z,24.55
2022-12-15T04:33:32.741Z,19.48
2022-12-15T04:36:17.937Z,19.50
2022-12-15T04:39:03.290Z,19.57
2022-12-15T04:41:50.955Z,21.88
2022-12-15T04:44:36.635Z,20.70
2022-12-15T04:47:21.938Z,19.70
2022-12-15T04:50:07.153Z,24.38
2022-12-15T04:52:52.460Z,28.00
2022-12-15T04:55:37.752Z,25.58
2022-12-15T04:58:25.052Z,28.33
2022-12-15T05:01:10.531Z,24.73
2022-12-15T05:03:55.733Z,21.38
2022-12-15T05:06:41.039Z,23.02
2022-12-15T05:09:26.285Z,21.90
2022-12-15T05:12:11.517Z,21.52
2022-12-15T05:14:58.159Z,21.00
2022-12-15T05:17:43.318Z,22.58
2022-12-15T05:20:28.601Z,28.90
2022-12-15T05:23:14.449Z,20.15
2022-12-15T05:28:45.035Z,20.05
2022-12-15T05:31:31.444Z,20.63
2022-12-15T05:34:04.679Z,23.52
2022-12-15T05:36:33.522Z,18.23
2022-12-15T05:39:00.988Z,22.27
2022-12-15T05:41:28.489Z,17.98
2022-12-15T05:43:55.967Z,22.08
2022-12-15T05:46:24.896Z,17.60
2022-12-15T05:48:52.416Z,21.90
2022-12-15T05:51:19.872Z,24.42
2022-12-15T05:53:47.329Z,21.70
2022-12-15T05:56:15.913Z,25.42
2022-12-15T05:58:45.660Z,21.90
2022-12-15T06:01:15.488Z,23.10
2022-12-15T06:03:44.342Z,19.80
2022-12-15T06:06:13.557Z,27.13
2022-12-15T06:08:43.127Z,29.23
2022-12-15T06:11:13.415Z,22.75
2022-12-15T06:13:41.695Z,27.67
2022-12-15T06:16:12.453Z,22.17
2022-12-15T06:18:42.292Z,19.73
2022-12-15T06:21:13.042Z,21.85
2022-12-15T06:23:41.284Z,20.60
2022-12-15T06:26:10.385Z,25.08
2022-12-15T06:28:37.908Z,23.02
2022-12-15T06:31:07.475Z,17.88
2022-12-15T06:33:35.668Z,21.60
2022-12-15T06:36:04.651Z,23.02
2022-12-15T06:38:34.580Z,22.20
2022-12-15T06:41:04.327Z,20.20
2022-12-15T06:43:34.195Z,24.55
2022-12-15T06:46:02.759Z,25.85
2022-12-15T06:48:30.571Z,23.50
2022-12-15T06:50:58.131Z,29.20
2022-12-15T06:53:25.596Z,20.92
2022-12-15T06:55:54.477Z,24.02
2022-12-15T06:58:21.916Z,24.55
2022-12-15T07:00:49.338Z,19.88
2022-12-15T07:03:20.595Z,22.65
2022-12-15T07:05:48.253Z,28.45
2022-12-15T07:08:17.247Z,27.48
2022-12-15T07:10:45.091Z,19.83
2022-12-15T07:13:14.841Z,19.02
2022-12-15T07:15:42.668Z,21.85
2022-12-15T07:18:11.051Z,20.95
2022-12-15T07:20:38.608Z,23.02
2022-12-15T07:23:09.492Z,25.02
2022-12-15T07:25:37.656Z,27.77
2022-12-15T07:28:05.773Z,21.02
2022-12-15T07:30:38.984Z,23.83
2022-12-15T07:33:06.912Z,20.45
2022-12-15T07:35:34.498Z,22.42
2022-12-15T07:38:01.952Z,23.48
2022-12-15T07:40:29.531Z,24.13
2022-12-15T07:42:57.282Z,25.23
2022-12-15T07:45:24.814Z,24.92
2022-12-15T07:47:53.640Z,22.00
2022-12-15T07:50:21.197Z,23.25
2022-12-15T07:52:48.661Z,23.45
2022-12-15T07:55:17.337Z,28.30
2022-12-15T07:57:44.766Z,21.05
2022-12-15T08:00:14.714Z,21.98
2022-12-15T08:02:42.555Z,21.33
2022-12-15T08:05:11.750Z,23.10
2022-12-15T08:07:39.249Z,23.30
2022-12-15T08:10:07.683Z,25.10
2022-12-15T08:12:35.174Z,20.90
2022-12-15T08:15:02.617Z,20.15
2022-12-15T08:17:30.128Z,23.83
2022-12-15T08:19:59.031Z,19.58
2022-12-15T08:22:27.893Z,19.63
2022-12-15T08:24:55.376Z,32.78
2022-12-15T08:27:24.029Z,22.80
2022-12-15T08:29:52.583Z,23.25
2022-12-15T08:32:20.499Z,21.88
2022-12-15T08:34:49.287Z,21.33
2022-12-15T08:37:16.834Z,25.00
2022-12-15T08:39:45.663Z,23.20
2022-12-15T08:42:13.119Z,25.73
2022-12-15T08:44:40.703Z,29.65
2022-12-15T08:47:08.488Z,26.70
2022-12-15T08:49:35.945Z,26.08
2022-12-15T08:52:03.421Z,23.92
2022-12-15T08:54:32.351Z,28.05
2022-12-15T08:57:02.228Z,21.92
2022-12-15T08:59:29.698Z,24.83
2022-12-15T09:01:57.411Z,32.22
2022-12-15T09:04:24.970Z,21.92
2022-12-15T09:06:52.662Z,24.30
2022-12-15T09:09:21.366Z,26.58
2022-12-15T09:11:49.446Z,27.33
2022-12-15T09:14:25.537Z,21.70
2022-12-15T09:16:54.821Z,20.98
2022-12-15T09:19:22.372Z,20.58
2022-12-15T09:21:49.811Z,26.30
2022-12-15T09:24:26.092Z,21.75
2022-12-15T09:26:59.843Z,27.85
2022-12-15T09:29:28.645Z,26.08
2022-12-15T09:31:56.106Z,22.63
2022-12-15T09:34:23.554Z,27.25
2022-12-15T09:36:51.007Z,23.23
2022-12-15T09:39:18.648Z,24.90
2022-12-15T09:41:53.387Z,21.75
2022-12-15T09:44:23.582Z,22.38
2022-12-15T09:47:06.636Z,21.27
2022-12-15T09:49:49.307Z,19.10
2022-12-15T09:52:19.286Z,23.33
2022-12-15T09:54:47.169Z,19.85
2022-12-15T09:57:23.054Z,21.92
2022-12-15T10:00:09.974Z,25.77
2022-12-15T10:03:10.856Z,24.63
2022-12-15T10:06:14.734Z,24.10
2022-12-15T10:08:39.257Z,25.85
2022-12-15T10:11:17.079Z,24.80
2022-12-15T10:13:51.232Z,23.17
2022-12-15T10:16:25.370Z,21.45
2022-12-15T10:19:02.592Z,19.52
2022-12-15T10:21:32.218Z,24.98
2022-12-15T10:24:06.154Z,24.90
2022-12-15T10:26:35.731Z,25.73
2022-12-15T10:29:17.578Z,22.35
2022-12-15T10:31:52.257Z,23.77
2022-12-15T10:34:31.410Z,28.13
2022-12-15T10:36:59.273Z,25.90
2022-12-15T10:39:39.083Z,26.45
2022-12-15T10:42:15.840Z,21.20
2022-12-15T10:44:45.476Z,23.20
2022-12-15T10:47:21.551Z,23.83
2022-12-15T10:49:51.080Z,25.92
2022-12-15T10:52:35.120Z,21.88
2022-12-15T10:55:02.799Z,22.35
2022-12-15T10:57:33.472Z,23.10
2022-12-15T11:00:28.347Z,24.52
2022-12-15T11:02:56.616Z,26.85
2022-12-15T11:05:26.973Z,25.45
2022-12-15T11:07:56.213Z,23.65
2022-12-15T11:10:25.552Z,25.27
2022-12-15T11:12:59.968Z,30.65
2022-12-15T11:15:47.080Z,25.30
2022-12-15T11:18:41.997Z,25.77
2022-12-15T11:21:15.536Z,26.20
2022-12-15T11:23:52.641Z,33.00
2022-12-15T11:26:38.133Z,24.45
2022-12-15T11:29:14.566Z,24.73
2022-12-15T11:31:44.481Z,25.33
2022-12-15T11:34:14.724Z,27.98
2022-12-15T11:37:09.465Z,26.63
2022-12-15T11:39:59.601Z,32.60
2022-12-15T11:42:41.904Z,30.70
2022-12-15T11:45:18.775Z,32.25
2022-12-15T11:47:51.826Z,29.38
2022-12-15T11:50:30.356Z,30.27
2022-12-15T11:53:36.796Z,25.40
2022-12-15T11:56:11.528Z,26.35
2022-12-15T11:59:00.889Z,34.28
2022-12-15T12:01:55.359Z,30.05
2022-12-15T12:04:44.821Z,33.55
2022-12-15T12:07:25.294Z,32.17
2022-12-15T12:10:09.057Z,34.47
2022-12-15T12:12:44.999Z,29.73
2022-12-15T12:15:26.135Z,27.92
2022-12-15T12:17:56.345Z,35.95
2022-12-15T12:20:29.262Z,37.05
2022-12-15T12:23:03.329Z,28.08
2022-12-15T12:25:35.876Z,31.52
2022-12-15T12:28:07.499Z,32.58
2022-12-15T12:30:41.290Z,28.17
2022-12-15T12:33:18.979Z,25.73
2022-12-15T12:35:50.677Z,31.42
2022-12-15T12:38:21.200Z,30.92
2022-12-15T12:41:00.505Z,25.15
2022-12-15T12:43:36.199Z,25.15
2022-12-15T12:46:10.977Z,28.58
2022-12-15T12:48:42.606Z,33.42
2022-12-15T12:51:20.312Z,30.23
2022-12-15T12:56:43.389Z,32.13
2022-12-15T12:59:36.285Z,30.15
2022-12-15T13:02:56.125Z,36.88
2022-12-15T13:05:28.440Z,29.48
2022-12-15T13:08:17.177Z,27.95
2022-12-15T13:10:47.383Z,34.63
2022-12-15T13:13:47.387Z,37.10
2022-12-15T13:16:25.115Z,25.40
2022-12-15T13:18:57.365Z,30.17
2022-12-15T13:21:53.330Z,28.33
2022-12-15T13:24:31.663Z,28.95
2022-12-15T13:27:13.605Z,29.35
2022-12-15T13:29:58.053Z,25.92
2022-12-15T13:32:37.259Z,31.48
2022-12-15T13:35:22.024Z,31.58
2022-12-15T13:37:52.826Z,30.15
2022-12-15T13:40:34.844Z,33.22
2022-12-15T13:43:11.309Z,30.20
2022-12-15T13:45:51.081Z,31.83
2022-12-15T13:48:38.337Z,28.13
2022-12-15T13:51:18.732Z,28.65
2022-12-15T13:53:51.824Z,33.53
2022-12-15T13:56:33.434Z,33.67
2022-12-15T13:59:06.672Z,28.73
2022-12-15T14:01:35.531Z,30.35
2022-12-15T14:04:12.469Z,33.90
2022-12-15T14:06:47.047Z,32.08
2022-12-15T14:09:23.469Z,38.20
2022-12-15T14:11:53.559Z,28.60
2022-12-15T14:14:25.615Z,34.78
2022-12-15T14:17:00.824Z,33.42
2022-12-15T14:19:38.844Z,35.17
2022-12-15T14:22:25.149Z,33.33
2022-12-15T14:25:01.427Z,33.45
2022-12-15T14:27:31.526Z,30.98
2022-12-15T14:30:22.182Z,28.80
2022-12-15T14:32:55.557Z,29.15
2022-12-15T14:35:29.566Z,38.13
2022-12-15T14:38:00.585Z,28.55
2022-12-15T14:40:29.666Z,31.10
2022-12-15T14:42:57.642Z,32.03
2022-12-15T14:45:27.734Z,35.33
2022-12-15T14:48:30.943Z,34.38
2022-12-15T14:50:49.176Z,30.80
2022-12-15T14:53:22.411Z,31.85
2022-12-15T14:55:50.312Z,33.67
2022-12-15T14:58:31.542Z,30.08
2022-12-15T15:01:01.527Z,30.10
2022-12-15T15:03:07.286Z,30.88
2022-12-15T15:03:38.103Z,37.50
2022-12-15T15:06:15.531Z,30.70
2022-12-15T15:08:46.593Z,32.65
2022-12-15T15:11:24.873Z,44.25
2022-12-15T15:13:56.439Z,37.05
2022-12-15T15:16:24.385Z,42.97
2022-12-15T15:18:55.844Z,66.68
2022-12-15T15:21:26.860Z,56.78
2022-12-15T15:24:02.733Z,38.95
2022-12-15T15:26:31.755Z,32.63
2022-12-15T15:28:59.307Z,30.63
2022-12-15T15:31:32.784Z,32.22
2022-12-15T15:34:07.308Z,36.25
2022-12-15T15:36:37.154Z,36.13
2022-12-15T15:39:10.997Z,33.58
2022-12-15T15:41:38.542Z,39.25
2022-12-15T15:44:12.837Z,34.85
2022-12-15T15:46:47.446Z,36.63
2022-12-15T15:49:19.085Z,35.55
2022-12-15T15:51:46.768Z,34.20
2022-12-15T15:54:17.644Z,34.22
2022-12-15T15:56:45.179Z,36.90
2022-12-15T15:59:14.567Z,30.33
2022-12-15T16:01:42.241Z,34.95
2022-12-15T16:04:10.019Z,38.58
2022-12-15T16:06:45.159Z,43.10
2022-12-15T16:09:16.722Z,36.80
2022-12-15T16:11:45.365Z,34.28
2022-12-15T16:14:14.012Z,39.95
2022-12-15T16:16:41.731Z,38.90
2022-12-15T16:19:09.357Z,36.17
2022-12-15T16:21:40.032Z,39.85
2022-12-15T16:24:10.693Z,38.13
2022-12-15T16:26:39.224Z,42.03
2022-12-15T16:29:13.680Z,44.42
2022-12-15T16:31:45.206Z,34.03
2022-12-15T16:34:13.227Z,35.33
2022-12-15T16:36:42.292Z,32.63
2022-12-15T16:39:24.485Z,36.38
2022-12-15T16:41:54.098Z,38.33
2022-12-15T16:44:22.034Z,34.03
2022-12-15T16:46:49.703Z,32.15
2022-12-15T16:49:17.208Z,37.72
2022-12-15T16:51:48.849Z,32.88
2022-12-15T16:54:19.034Z,35.13
2022-12-15T16:56:46.666Z,36.40
2022-12-15T16:59:32.384Z,41.45
2022-12-15T17:02:01.125Z,37.13
2022-12-15T17:04:28.716Z,41.67
2022-12-15T17:06:57.552Z,42.08
2022-12-15T17:09:26.582Z,36.13
2022-12-15T17:11:54.296Z,42.05
2022-12-15T17:14:21.770Z,38.25
2022-12-15T17:16:49.215Z,35.05
2022-12-15T17:19:21.067Z,39.08
2022-12-15T17:21:51.744Z,34.15
2022-12-15T17:24:22.351Z,35.30
2022-12-15T17:26:50.637Z,39.15
2022-12-15T17:29:20.946Z,40.22
2022-12-15T17:31:48.568Z,40.55
2022-12-15T17:34:27.214Z,39.33
2022-12-15T17:36:54.857Z,39.65
2022-12-15T17:39:24.833Z,48.35
2022-12-15T17:42:02.032Z,43.42
2022-12-15T17:44:34.366Z,30.42
2022-12-15T17:47:03.985Z,38.53
2022-12-15T17:49:35.941Z,43.85
2022-12-15T17:52:07.792Z,44.83
2022-12-15T17:54:36.678Z,39.70
2022-12-15T17:57:04.375Z,49.53
2022-12-15T17:59:32.977Z,40.72
2022-12-15T18:02:00.591Z,44.83
2022-12-15T18:04:28.155Z,41.53
2022-12-15T18:07:01.592Z,46.95
2022-12-15T18:09:29.732Z,42.53
2022-12-15T18:11:58.746Z,50.35
2022-12-15T18:14:28.188Z,47.60
2022-12-15T18:16:55.706Z,49.40
2022-12-15T18:19:23.221Z,41.90
2022-12-15T18:21:50.639Z,49.50
2022-12-15T18:24:21.507Z,42.05
2022-12-15T18:26:49.022Z,48.67
2022-12-15T18:29:18.647Z,38.08
2022-12-15T18:31:48.175Z,36.42
2022-12-15T18:34:18.281Z,46.55
2022-12-15T18:36:46.003Z,39.47
2022-12-15T18:39:23.110Z,49.80
2022-12-15T18:41:51.275Z,42.95
2022-12-15T18:44:24.661Z,45.45
2022-12-15T18:46:52.342Z,39.85
2022-12-15T18:49:22.593Z,50.15
2022-12-15T18:51:50.308Z,53.30
2022-12-15T18:54:20.099Z,50.20
2022-12-15T18:56:47.811Z,51.03
2022-12-15T18:59:17.562Z,48.65
2022-12-15T19:01:48.316Z,49.60
2022-12-15T19:04:16.015Z,47.28
2022-12-15T19:06:44.103Z,49.85
2022-12-15T19:09:16.501Z,44.15
2022-12-15T19:12:16.255Z,45.05
2022-12-15T19:14:44.045Z,50.95
2022-12-15T19:17:32.370Z,51.95
2022-12-15T19:20:17.453Z,58.10
2022-12-15T19:22:46.157Z,65.18
2022-12-15T19:25:25.117Z,65.78
2022-12-15T19:27:58.236Z,67.30
2022-12-15T19:30:27.501Z,65.38
2022-12-15T19:32:56.764Z,62.58
2022-12-15T19:35:24.993Z,59.53
2022-12-15T19:37:54.830Z,53.50
2022-12-15T19:40:24.746Z,54.20
2022-12-15T19:42:53.059Z,55.58
2022-12-15T19:45:25.805Z,54.72
2022-12-15T19:47:53.406Z,59.08
2022-12-15T19:50:24.171Z,52.28
2022-12-15T19:52:55.721Z,60.63
2022-12-15T19:55:27.846Z,51.65
2022-12-15T19:57:55.313Z,51.30
2022-12-15T20:00:24.933Z,49.15
2022-12-15T20:02:54.596Z,52.53
2022-12-15T20:05:25.350Z,58.15
2022-12-15T20:07:54.534Z,53.53
2022-12-15T20:10:29.337Z,55.72
2022-12-15T20:12:59.467Z,52.17
2022-12-15T20:15:27.231Z,46.50
2022-12-15T20:17:56.626Z,46.08
2022-12-15T20:20:27.697Z,43.08
2022-12-15T20:22:57.474Z,43.60
2022-12-15T20:25:27.270Z,43.22
2022-12-15T20:27:54.820Z,50.05
2022-12-15T20:30:24.995Z,47.83
2022-12-15T20:32:52.611Z,47.10
2022-12-15T20:35:22.640Z,45.47
2022-12-15T20:37:52.953Z,50.08
2022-12-15T20:40:22.547Z,58.38
2022-12-15T20:42:52.820Z,55.22
2022-12-15T20:45:22.847Z,57.95
2022-12-15T20:47:52.697Z,67.55
2022-12-15T20:50:26.790Z,60.10
2022-12-15T20:52:55.865Z,59.33
2022-12-15T20:55:23.372Z,55.58
2022-12-15T20:57:50.843Z,44.55
2022-12-15T21:00:19.011Z,44.70
2022-12-15T21:02:47.500Z,55.55
2022-12-15T21:05:19.043Z,39.92
2022-12-15T21:07:47.214Z,47.97
2022-12-15T21:10:17.937Z,40.13
2022-12-15T21:12:47.225Z,50.28
2022-12-15T21:15:16.775Z,39.20
2022-12-15T21:17:44.376Z,41.72
2022-12-15T21:20:13.129Z,49.03
2022-12-15T21:22:41.530Z,53.13
2022-12-15T21:25:23.354Z,53.17
2022-12-15T21:27:50.835Z,47.13
2022-12-15T21:30:21.407Z,51.50
2022-12-15T21:32:48.927Z,53.15
2022-12-15T21:35:18.317Z,44.42
2022-12-15T21:37:48.383Z,44.75
2022-12-15T21:40:22.496Z,42.22
2022-12-15T21:42:50.927Z,31.13
2022-12-15T21:45:21.159Z,42.15
2022-12-15T21:48:07.358Z,39.35
2022-12-15T21:50:36.501Z,41.85
2022-12-15T21:53:05.430Z,41.53
2022-12-15T21:55:34.532Z,44.38
2022-12-15T21:58:02.354Z,38.45
2022-12-15T22:00:29.913Z,41.22
2022-12-15T22:02:57.481Z,42.25
2022-12-15T22:05:29.223Z,39.65
2022-12-15T22:07:56.960Z,40.20
2022-12-15T22:10:24.805Z,41.05
2022-12-15T22:12:59.235Z,45.85
2022-12-15T22:15:27.043Z,42.15
2022-12-15T22:17:54.531Z,50.83
2022-12-15T22:20:24.412Z,40.58
2022-12-15T22:22:52.410Z,47.90
2022-12-15T22:25:22.252Z,41.20
2022-12-15T22:27:49.902Z,37.00
2022-12-15T22:30:24.169Z,38.38
2022-12-15T22:32:51.786Z,37.83
2022-12-15T22:35:22.048Z,34.78
2022-12-15T22:37:53.338Z,48.75
2022-12-15T22:40:22.003Z,44.83
2022-12-15T22:42:52.286Z,43.95
2022-12-15T22:45:23.813Z,45.30
2022-12-15T22:47:53.112Z,46.53
2022-12-15T22:50:25.658Z,48.95
2022-12-15T22:52:55.073Z,45.97
2022-12-15T22:55:24.472Z,46.03
2022-12-15T22:57:57.703Z,53.25
2022-12-15T23:00:26.685Z,45.00
2022-12-15T23:02:54.268Z,45.90
2022-12-15T23:05:21.901Z,48.53
2022-12-15T23:07:49.472Z,36.63
2022-12-15T23:10:38.044Z,43.80
2022-12-15T23:13:06.039Z,43.80
2022-12-15T23:15:58.167Z,52.42
2022-12-15T23:18:25.639Z,33.28
2022-12-15T23:20:53.855Z,44.78
2022-12-15T23:23:22.193Z,41.45
2022-12-15T23:25:49.662Z,37.55
2022-12-15T23:28:17.096Z,40.92
2022-12-15T23:30:50.615Z,41.05
2022-12-15T23:33:18.590Z,45.10
2022-12-15T23:35:46.955Z,30.77
2022-12-15T23:38:15.751Z,38.95
2022-12-15T23:40:49.556Z,31.52
2022-12-15T23:43:20.747Z,29.92
2022-12-15T23:45:58.513Z,39.03
2022-12-15T23:48:29.638Z,34.55
2022-12-15T23:50:57.137Z,40.42
2022-12-15T23:53:24.599Z,36.05
2022-12-15T23:55:52.045Z,29.02
2022-12-15T23:58:19.724Z,34.40
